Time;durP1;ratioP1;P1;durP2;ratioP2;P2;SDS_P1;SDS_P2;PMS_P1;PMS_P2;Temp;Humidity;BMP_temperature;BMP_pressure;BME280_temperature;BME280_humidity;BME280_pressure;Samples;Min_cycle;Max_cycle;Signal;HPM_P1;HPM_P2
2022/05/21 00:01:52;;;;;;;4.07;2.00;;;;;;;24.17;57.84;100855.47;5108221;28;20450;-61
2022/05/21 00:04:17;;;;;;;5.70;2.73;;;;;;;24.16;57.81;100855.88;5109502;28;20415;-61
2022/05/21 00:06:43;;;;;;;4.60;2.27;;;;;;;24.15;57.81;100865.75;5109345;28;20201;-61
2022/05/21 00:09:09;;;;;;;5.30;1.90;;;;;;;24.17;57.69;100871.94;5108777;28;20173;-61
2022/05/21 00:11:34;;;;;;;3.07;1.40;;;;;;;24.16;57.48;100884.72;5094441;28;20257;-61
2022/05/21 00:13:59;;;;;;;5.17;1.73;;;;;;;24.16;57.75;100881.84;5090041;28;20200;-61
2022/05/21 00:16:25;;;;;;;5.33;2.40;;;;;;;24.15;57.58;100889.69;5103672;28;20234;-61
2022/05/21 00:18:50;;;;;;;3.93;2.17;;;;;;;24.16;57.55;100891.31;5109392;27;20215;-61
2022/05/21 00:21:16;;;;;;;3.17;1.90;;;;;;;24.15;57.58;100898.34;5092858;28;20178;-61
2022/05/21 00:23:42;;;;;;;3.33;1.93;;;;;;;24.15;57.24;100906.16;5092011;28;20178;-61
2022/05/21 00:26:14;;;;;;;4.00;1.93;;;;;;;24.14;57.24;100905.31;5089080;28;20231;-61
2022/05/21 00:28:41;;;;;;;3.13;2.00;;;;;;;24.12;57.59;100898.28;5093596;28;20253;-61
2022/05/21 00:31:07;;;;;;;4.90;1.87;;;;;;;24.09;56.98;100904.91;5102074;28;20439;-61
2022/05/21 00:33:33;;;;;;;3.30;1.90;;;;;;;24.07;56.95;100904.44;5110401;28;20423;-61
2022/05/21 00:35:58;;;;;;;2.83;1.87;;;;;;;24.04;56.90;100902.41;5108272;28;20933;-61
2022/05/21 00:38:24;;;;;;;3.53;2.30;;;;;;;24.00;56.68;100901.53;5111916;28;20201;-61
2022/05/21 00:40:49;;;;;;;4.30;2.00;;;;;;;24.00;56.45;100911.03;5103186;28;20606;-61
2022/05/21 00:43:41;;;;;;;2.90;2.00;;;;;;;23.98;56.39;100904.81;5091375;28;20593;-61
2022/05/21 00:46:10;;;;;;;6.23;2.33;;;;;;;23.99;56.08;100902.78;5092628;28;20582;-61
2022/05/21 00:48:36;;;;;;;6.37;1.90;;;;;;;23.98;56.36;100906.91;5108527;28;20779;-61
2022/05/21 00:51:02;;;;;;;3.00;1.97;;;;;;;23.99;56.33;100918.00;5114046;28;20941;-61
2022/05/21 00:53:27;;;;;;;7.70;2.00;;;;;;;23.99;56.48;100918.00;5111517;28;20425;-61
2022/05/21 00:55:53;;;;;;;3.10;1.83;;;;;;;24.01;56.02;100917.63;5113025;28;20213;-61
2022/05/21 01:01:04;;;;;;;3.77;2.00;;;;;;;24.05;55.57;100930.84;5103178;28;20189;-61
2022/05/21 01:06:05;;;;;;;3.53;1.63;;;;;;;24.08;56.12;100935.78;5018192;22;20236;-76
2022/05/21 01:08:30;;;;;;;4.20;2.10;;;;;;;24.07;56.09;100939.91;4977063;28;20423;-76
2022/05/21 01:10:58;;;;;;;4.90;1.97;;;;;;;24.08;55.76;100946.53;4961867;28;20431;-74
2022/05/21 01:13:24;;;;;;;4.10;1.50;;;;;;;24.08;56.22;100937.88;4964126;28;20181;-76
2022/05/21 01:15:51;;;;;;;3.57;1.90;;;;;;;24.05;55.85;100930.00;4964814;28;20440;-77
2022/05/21 01:18:17;;;;;;;3.47;2.10;;;;;;;24.04;55.62;100934.13;4968786;28;20435;-75
2022/05/21 01:20:44;;;;;;;3.70;1.83;;;;;;;24.01;55.28;100927.09;4993781;28;20428;-74
2022/05/21 01:23:10;;;;;;;6.13;2.20;;;;;;;24.03;55.76;100926.72;4974713;28;20174;-74
2022/05/21 01:25:38;;;;;;;2.80;1.73;;;;;;;24.02;55.74;100925.03;4980503;28;20494;-74
2022/05/21 01:28:04;;;;;;;3.20;1.87;;;;;;;24.01;55.57;100927.09;4975375;28;20464;-76
2022/05/21 01:30:35;;;;;;;2.90;1.87;;;;;;;24.00;55.33;100930.38;4958626;28;20429;-74
2022/05/21 01:33:04;;;;;;;5.83;2.07;;;;;;;23.99;55.17;100932.44;5011130;28;20531;-75
2022/05/21 01:35:30;;;;;;;3.43;1.97;;;;;;;23.99;55.30;100926.66;4978506;28;20519;-77
2022/05/21 01:37:56;;;;;;;3.40;1.70;;;;;;;24.01;55.30;100932.03;4961602;28;20581;-77
2022/05/21 01:40:22;;;;;;;3.40;1.63;;;;;;;24.01;55.02;100932.88;4995889;28;20303;-76
2022/05/21 01:44:37;;;;;;;2.57;1.60;;;;;;;24.03;55.22;100941.13;4991404;28;20440;-76
2022/05/21 01:45:32;;;;;;;3.17;1.90;;;;;;;24.02;55.06;100945.22;4982235;28;20276;-77
2022/05/21 01:47:58;;;;;;;2.63;1.60;;;;;;;24.04;55.17;100954.31;4959743;28;20502;-74
2022/05/21 01:50:24;;;;;;;5.10;1.63;;;;;;;24.03;55.12;100959.25;4974030;28;20173;-74
2022/05/21 01:52:50;;;;;;;5.97;1.80;;;;;;;24.04;55.38;100954.31;4975945;28;20271;-76
2022/05/21 01:55:15;;;;;;;3.77;1.47;;;;;;;24.05;55.03;100964.63;4978828;28;20447;-74
2022/05/21 01:57:41;;;;;;;4.33;1.37;;;;;;;24.04;55.03;100966.66;4994133;28;20651;-76
2022/05/21 02:00:07;;;;;;;3.47;1.77;;;;;;;24.05;55.04;100976.16;4961744;28;20197;-75
2022/05/21 02:02:33;;;;;;;5.33;1.47;;;;;;;24.03;55.09;100973.69;4977684;28;20272;-75
2022/05/21 02:04:59;;;;;;;3.63;1.50;;;;;;;24.02;54.57;100962.53;4961744;28;20476;-74
2022/05/21 02:07:24;;;;;;;3.10;1.20;;;;;;;24.00;54.52;100974.50;4993207;28;20439;-74
2022/05/21 02:09:50;;;;;;;3.70;1.57;;;;;;;24.00;54.66;100967.88;4993170;28;20173;-74
2022/05/21 02:12:16;;;;;;;5.17;1.87;;;;;;;23.98;54.45;100979.81;4977136;28;20938;-75
2022/05/21 02:14:43;;;;;;;3.93;1.37;;;;;;;23.96;54.18;100982.28;4995051;28;20189;-76
2022/05/21 02:17:08;;;;;;;3.10;1.53;;;;;;;23.97;54.17;100974.44;5019210;28;20455;-75
2022/05/21 02:19:34;;;;;;;2.77;1.63;;;;;;;23.94;54.00;100976.09;5013778;28;20877;-74
2022/05/21 02:21:59;;;;;;;2.80;1.40;;;;;;;23.91;53.81;100976.91;5013466;28;20168;-76
2022/05/21 02:24:25;;;;;;;2.60;1.40;;;;;;;23.91;53.93;100976.91;4982297;28;20172;-74
2022/05/21 02:26:50;;;;;;;2.93;1.43;;;;;;;23.90;53.59;100983.91;5008136;28;20355;-77
2022/05/21 02:29:18;;;;;;;4.87;2.03;;;;;;;23.91;53.71;100976.06;4962304;28;20227;-76
2022/05/21 02:31:43;;;;;;;3.10;1.67;;;;;;;23.92;53.98;100983.47;4958042;28;20185;-77
2022/05/21 02:34:09;;;;;;;2.97;1.50;;;;;;;23.93;53.68;100980.19;4991246;28;20435;-74
2022/05/21 02:39:30;;;;;;;3.00;1.53;;;;;;;23.93;53.56;100988.84;4995577;28;20255;-76
2022/05/21 02:41:59;;;;;;;2.90;1.50;;;;;;;23.94;53.64;100993.38;4981051;28;20443;-76
2022/05/21 02:44:25;;;;;;;4.03;1.77;;;;;;;23.94;53.36;100999.16;4976877;28;20428;-76
2022/05/21 02:46:51;;;;;;;2.80;1.50;;;;;;;23.94;53.87;100999.16;4960407;28;20424;-74
2022/05/21 02:49:16;;;;;;;2.23;1.40;;;;;;;23.94;53.16;100996.28;4976266;28;20268;-75
2022/05/21 02:51:42;;;;;;;3.33;1.60;;;;;;;23.95;53.71;101000.84;4971894;28;20437;-77
2022/05/21 02:54:09;;;;;;;6.33;1.47;;;;;;;23.94;53.26;101002.03;4992554;28;20170;-76
2022/05/21 02:56:36;;;;;;;2.57;1.40;;;;;;;23.95;53.71;100992.19;4960862;28;20177;-76
2022/05/21 02:59:06;;;;;;;3.63;1.60;;;;;;;23.95;53.57;100997.13;4992462;28;21093;-74
2022/05/21 03:01:32;;;;;;;7.00;1.63;;;;;;;23.94;53.69;100998.34;4974683;28;20919;-76
2022/05/21 03:03:57;;;;;;;3.77;1.50;;;;;;;23.93;53.18;100999.59;4973610;28;20437;-76
2022/05/21 03:06:23;;;;;;;4.77;1.47;;;;;;;23.93;53.44;100997.50;4992755;28;20792;-77
2022/05/21 03:11:32;;;;;;;3.20;1.67;;;;;;;23.92;53.83;101000.78;4979476;28;20204;-76
2022/05/21 03:13:58;;;;;;;6.03;1.30;;;;;;;23.91;53.18;101005.75;4991415;28;20814;-75
2022/05/21 03:16:24;;;;;;;3.23;1.40;;;;;;;23.91;53.67;101005.75;4976215;28;20184;-76
2022/05/21 03:18:49;;;;;;;2.07;1.10;;;;;;;23.92;53.64;101013.16;4975325;28;20209;-76
2022/05/21 03:21:15;;;;;;;2.97;1.53;;;;;;;23.93;53.52;101016.88;4992402;28;20439;-77
2022/05/21 03:23:40;;;;;;;2.43;1.37;;;;;;;23.91;53.76;101011.50;4992445;28;20239;-76
2022/05/21 03:26:06;;;;;;;2.60;1.20;;;;;;;23.92;53.45;101015.22;4992087;28;20643;-74
2022/05/21 03:28:31;;;;;;;3.90;1.40;;;;;;;23.91;53.22;101016.44;4992033;28;20185;-74
2022/05/21 03:30:57;;;;;;;3.00;1.50;;;;;;;23.91;53.62;101022.22;4975875;28;20196;-76
2022/05/21 03:33:22;;;;;;;5.03;1.30;;;;;;;23.90;53.54;101021.41;4991610;28;20180;-76
2022/05/21 03:35:48;;;;;;;2.37;1.43;;;;;;;23.91;53.79;101019.31;4991948;28;20169;-76
2022/05/21 03:38:14;;;;;;;2.40;1.23;;;;;;;23.89;53.35;101028.38;4975662;28;20189;-76
2022/05/21 03:40:40;;;;;;;2.70;1.20;;;;;;;23.89;53.40;101030.44;4991408;28;20209;-74
2022/05/21 03:43:05;;;;;;;2.73;1.37;;;;;;;23.87;53.27;101025.03;5007859;28;20435;-75
2022/05/21 03:45:31;;;;;;;2.93;1.33;;;;;;;23.86;53.46;101020.50;5008295;28;20981;-76
2022/05/21 03:47:56;;;;;;;4.03;1.60;;;;;;;23.85;53.41;101024.63;4990259;28;20228;-77
2022/05/21 03:50:24;;;;;;;4.10;1.40;;;;;;;23.84;53.34;101017.19;4990729;28;20812;-75
2022/05/21 03:52:49;;;;;;;3.23;1.50;;;;;;;23.82;53.28;101013.88;4958243;28;20173;-75
2022/05/21 03:55:14;;;;;;;2.53;1.33;;;;;;;23.80;53.15;101010.59;4990692;28;20439;-74
2022/05/21 03:57:40;;;;;;;8.73;1.90;;;;;;;23.78;53.08;101007.25;4975884;28;20575;-76
2022/05/21 04:00:07;;;;;;;3.00;1.63;;;;;;;23.77;52.93;101008.47;4959058;28;20193;-74
2022/05/21 04:02:34;;;;;;;6.27;1.73;;;;;;;23.76;53.02;101018.38;4975256;28;20216;-76
2022/05/21 04:04:59;;;;;;;6.97;1.80;;;;;;;23.77;52.96;101017.13;4975511;28;20468;-76
2022/05/21 04:07:25;;;;;;;2.83;1.63;;;;;;;23.76;52.95;101021.25;4975642;28;20207;-76
2022/05/21 04:09:50;;;;;;;3.33;1.37;;;;;;;23.77;52.73;101019.19;4991758;28;20522;-74
2022/05/21 04:12:16;;;;;;;4.00;1.67;;;;;;;23.75;52.73;101019.59;4976553;28;20181;-76
2022/05/21 04:14:41;;;;;;;3.97;1.60;;;;;;;23.76;52.20;101026.19;4995872;28;20235;-74
2022/05/21 04:17:12;;;;;;;2.20;1.33;;;;;;;23.73;52.72;101024.91;4986533;28;20195;-77
2022/05/21 04:19:39;;;;;;;3.00;1.53;;;;;;;23.73;52.63;101036.47;4983716;28;20659;-76
2022/05/21 04:22:04;;;;;;;2.53;1.40;;;;;;;23.73;52.59;101027.81;5013567;28;20447;-76
2022/05/21 04:24:30;;;;;;;5.43;1.63;;;;;;;23.72;52.50;101026.16;4978619;28;20440;-76
2022/05/21 04:26:55;;;;;;;10.10;1.47;;;;;;;23.73;52.48;101030.69;4979226;28;20181;-74
2022/05/21 04:29:21;;;;;;;3.60;1.50;;;;;;;23.74;52.28;101035.22;5012604;28;20188;-77
2022/05/21 04:31:46;;;;;;;2.70;1.67;;;;;;;23.74;52.42;101029.44;5012775;28;20564;-74
2022/05/21 04:34:12;;;;;;;3.93;1.60;;;;;;;23.76;52.38;101031.94;4978920;28;20181;-76
2022/05/21 04:36:37;;;;;;;4.70;1.77;;;;;;;23.77;52.20;101040.19;4995555;28;20192;-74
2022/05/21 04:39:03;;;;;;;3.90;1.60;;;;;;;23.80;52.34;101039.41;5010964;28;20646;-74
2022/05/21 04:41:29;;;;;;;4.83;1.60;;;;;;;23.81;52.61;101035.31;4976559;28;20188;-75
2022/05/21 04:43:55;;;;;;;3.17;1.63;;;;;;;23.80;52.16;101039.41;4976720;28;20247;-76
2022/05/21 04:46:21;;;;;;;6.87;1.80;;;;;;;23.78;52.07;101036.09;4976662;28;20185;-75
2022/05/21 04:48:46;;;;;;;5.20;1.93;;;;;;;23.75;52.26;101039.78;4976910;28;20432;-74
2022/05/21 04:51:12;;;;;;;5.80;1.40;;;;;;;23.74;52.32;101041.00;4977615;28;20412;-76
2022/05/21 04:53:37;;;;;;;2.97;1.50;;;;;;;23.74;52.20;101038.09;4977944;28;20181;-74
2022/05/21 04:56:04;;;;;;;2.70;1.27;;;;;;;23.77;52.46;101042.25;4978259;28;20177;-75
2022/05/21 04:58:29;;;;;;;5.40;1.57;;;;;;;23.76;52.79;101043.47;4978528;28;20192;-76
2022/05/21 05:00:55;;;;;;;4.07;1.53;;;;;;;23.75;52.59;101039.78;4958454;28;20958;-74
2022/05/21 05:03:20;;;;;;;2.70;1.33;;;;;;;23.72;52.73;101040.56;4954869;28;20205;-74
2022/05/21 05:05:46;;;;;;;4.37;1.27;;;;;;;23.70;52.63;101048.81;4984526;28;20205;-75
2022/05/21 05:08:12;;;;;;;2.50;1.30;;;;;;;23.69;53.12;101040.53;4978749;28;20185;-75
2022/05/21 05:10:38;;;;;;;3.73;1.37;;;;;;;23.69;52.72;101047.13;4976743;28;20268;-74
2022/05/21 05:13:04;;;;;;;3.40;1.27;;;;;;;23.68;52.73;101042.59;4975022;28;20431;-74
2022/05/21 05:15:29;;;;;;;3.60;1.27;;;;;;;23.68;52.89;101048.34;4982156;28;20184;-74
2022/05/21 05:18:11;;;;;;;3.80;1.30;;;;;;;23.64;52.43;101043.78;5006026;28;21208;-77
2022/05/21 05:20:37;;;;;;;2.50;1.20;;;;;;;23.62;52.78;101052.00;4987562;28;20192;-75
2022/05/21 05:23:03;;;;;;;3.87;1.53;;;;;;;23.62;52.28;101052.84;4991608;28;20447;-74
2022/05/21 05:25:29;;;;;;;2.03;1.07;;;;;;;23.61;52.46;101051.19;4975918;28;20176;-75
2022/05/21 05:27:54;;;;;;;3.57;1.40;;;;;;;23.62;52.14;101040.47;4961631;28;20931;-75
2022/05/21 05:30:20;;;;;;;3.73;1.20;;;;;;;23.59;52.27;101042.09;4973753;28;20178;-74
2022/05/21 05:32:46;;;;;;;3.70;1.20;;;;;;;23.60;52.89;101043.78;4978094;28;20169;-78
2022/05/21 05:35:12;;;;;;;3.73;1.20;;;;;;;23.59;51.93;101039.19;4961444;28;20428;-74
2022/05/21 05:37:37;;;;;;;2.00;1.00;;;;;;;23.58;52.18;101049.09;4978520;28;20198;-76
2022/05/21 05:40:04;;;;;;;4.30;1.03;;;;;;;23.59;52.36;101052.81;4976785;28;20189;-76
2022/05/21 05:42:30;;;;;;;2.37;1.10;;;;;;;23.61;51.79;101045.41;4977503;28;20660;-74
2022/05/21 05:44:55;;;;;;;5.23;1.40;;;;;;;23.63;52.51;101047.91;4994167;28;20420;-75
2022/05/21 05:47:21;;;;;;;2.00;1.00;;;;;;;23.64;52.33;101046.69;5011514;28;20177;-76
2022/05/21 05:49:46;;;;;;;4.43;1.40;;;;;;;23.63;52.66;101051.59;4993260;28;20176;-76
2022/05/21 05:52:12;;;;;;;2.83;1.10;;;;;;;23.61;52.02;101048.31;4994208;28;20173;-74
2022/05/21 05:54:37;;;;;;;2.23;1.00;;;;;;;23.63;52.12;101051.59;4977861;28;20201;-74
2022/05/21 05:57:03;;;;;;;3.87;1.40;;;;;;;23.62;52.49;101054.88;4991928;28;20181;-76
2022/05/21 06:04:56;;;;;;;3.40;1.00;;;;;;;23.63;51.80;101051.59;4976566;28;20990;-75
2022/05/21 06:07:22;;;;;;;3.33;1.10;;;;;;;23.63;51.58;101062.31;4973946;28;20420;-75
2022/05/21 06:09:48;;;;;;;3.87;0.90;;;;;;;23.60;51.36;101055.31;4960252;28;20177;-74
2022/05/21 06:12:14;;;;;;;2.40;1.00;;;;;;;23.62;51.66;101055.72;4976578;28;20525;-74
2022/05/21 06:14:41;;;;;;;5.13;1.30;;;;;;;23.65;51.93;101065.63;4977338;28;20436;-76
2022/05/21 06:17:07;;;;;;;6.30;1.27;;;;;;;23.64;51.94;101070.56;4993547;28;20511;-76
2022/05/21 06:19:32;;;;;;;4.63;1.53;;;;;;;23.64;51.87;101073.44;4976915;28;20950;-76
2022/05/21 06:21:58;;;;;;;4.00;1.30;;;;;;;23.64;51.33;101067.66;5010914;28;20192;-75
2022/05/21 06:24:24;;;;;;;4.17;1.10;;;;;;;23.62;52.04;101073.00;4993248;28;20255;-74
2022/05/21 06:26:50;;;;;;;3.27;0.87;;;;;;;23.62;51.83;101077.94;4992377;28;20570;-76
2022/05/21 06:29:16;;;;;;;4.10;1.43;;;;;;;23.61;51.50;101076.28;4960720;28;20275;-75
2022/05/21 06:31:42;;;;;;;3.80;1.30;;;;;;;23.62;51.33;101066.41;4976711;28;20436;-74
2022/05/21 06:34:10;;;;;;;4.83;1.50;;;;;;;23.62;51.56;101073.00;4976705;28;20196;-76
2022/05/21 06:36:36;;;;;;;4.07;1.27;;;;;;;23.62;51.41;101069.28;4973458;28;20526;-76
2022/05/21 06:39:01;;;;;;;2.47;1.10;;;;;;;23.63;51.30;101066.03;4987644;28;20534;-76
2022/05/21 06:41:29;;;;;;;2.40;1.00;;;;;;;23.64;51.84;101066.84;4986954;28;20196;-75
2022/05/21 06:43:55;;;;;;;3.83;1.23;;;;;;;23.62;51.17;101072.19;4956774;28;20177;-74
2022/05/21 06:46:20;;;;;;;4.47;1.10;;;;;;;23.61;51.36;101065.59;4961400;28;20973;-77
2022/05/21 06:48:46;;;;;;;3.03;1.50;;;;;;;23.60;51.77;101069.72;4973514;28;20276;-76
2022/05/21 06:51:11;;;;;;;2.27;0.97;;;;;;;23.59;50.96;101062.25;4956309;28;20279;-75
2022/05/21 06:53:38;;;;;;;5.40;1.40;;;;;;;23.59;51.33;101059.38;4992730;28;20235;-74
2022/05/21 06:56:09;;;;;;;3.87;1.03;;;;;;;23.59;51.39;101056.50;4982180;28;20698;-74
2022/05/21 06:58:34;;;;;;;3.50;1.00;;;;;;;23.59;51.29;101056.50;4967114;28;20934;-74
2022/05/21 07:01:00;;;;;;;3.47;1.10;;;;;;;23.59;51.38;101056.50;4965285;28;20439;-77
2022/05/21 07:03:25;;;;;;;2.90;1.20;;;;;;;23.58;51.28;101054.84;4969032;28;20210;-75
2022/05/21 07:08:35;;;;;;;2.43;1.13;;;;;;;23.58;51.25;101057.72;4975258;28;20244;-76
2022/05/21 07:11:00;;;;;;;2.60;1.07;;;;;;;23.58;51.29;101069.25;4971470;28;20429;-77
2022/05/21 07:13:28;;;;;;;2.83;1.17;;;;;;;23.58;51.73;101077.09;4968002;28;20201;-76
2022/05/21 07:15:54;;;;;;;2.60;0.90;;;;;;;23.53;51.67;101066.75;4973023;28;20182;-74
2022/05/21 07:18:20;;;;;;;5.87;1.70;;;;;;;23.61;51.08;101071.38;4973027;28;20828;-76
2022/05/21 07:20:46;;;;;;;6.70;2.30;;;;;;;23.77;51.72;101063.28;4972498;28;20475;-76
2022/05/21 07:23:11;;;;;;;7.60;1.90;;;;;;;23.81;51.96;101063.31;4989401;28;20242;-76
2022/05/21 07:25:37;;;;;;;4.97;1.50;;;;;;;23.73;50.66;101061.59;4988858;28;20194;-75
2022/05/21 07:28:02;;;;;;;7.30;1.50;;;;;;;23.58;48.29;101060.63;4988357;28;20186;-74
2022/05/21 07:30:28;;;;;;;6.00;1.60;;;;;;;23.54;48.27;101064.69;4972511;28;20189;-75
2022/05/21 07:32:55;;;;;;;5.57;1.50;;;;;;;23.49;47.53;101063.00;4969342;28;20186;-75
2022/05/21 07:35:21;;;;;;;2.37;0.93;;;;;;;23.37;47.68;101057.53;4969734;28;20418;-75
2022/05/21 07:37:47;;;;;;;5.10;1.10;;;;;;;23.38;46.68;101067.00;4969578;28;20935;-75
2022/05/21 07:40:13;;;;;;;5.00;1.53;;;;;;;23.29;45.83;101057.84;4951765;28;20626;-75
2022/05/21 07:42:38;;;;;;;4.87;1.50;;;;;;;23.35;46.40;101062.88;4965626;28;20528;-76
2022/05/21 07:45:06;;;;;;;4.97;1.40;;;;;;;23.38;46.14;101055.47;4970924;28;20181;-73
2022/05/21 07:47:31;;;;;;;3.17;0.90;;;;;;;23.33;45.86;101053.78;4974024;28;20189;-73
2022/05/21 07:49:57;;;;;;;4.83;1.20;;;;;;;23.44;45.78;101060.47;4974103;28;20432;-75
2022/05/21 07:52:23;;;;;;;4.53;1.37;;;;;;;23.56;46.30;101062.25;4993063;28;20546;-74
2022/05/21 07:54:48;;;;;;;4.60;1.37;;;;;;;23.66;47.07;101053.69;4973394;28;20181;-75
2022/05/21 07:57:14;;;;;;;3.00;0.90;;;;;;;23.71;47.43;101050.47;4987644;28;20542;-75
2022/05/21 07:59:39;;;;;;;5.10;1.43;;;;;;;23.73;48.09;101050.88;4954947;28;20593;-74
2022/05/21 08:02:06;;;;;;;3.10;1.10;;;;;;;23.75;47.84;101059.97;4989530;28;20182;-74
2022/05/21 08:04:32;;;;;;;2.23;1.00;;;;;;;23.74;48.03;101052.53;4971704;28;20248;-74
2022/05/21 08:06:57;;;;;;;4.70;1.47;;;;;;;23.77;48.24;101045.97;4987810;28;20429;-75
2022/05/21 08:09:23;;;;;;;4.87;1.20;;;;;;;23.78;48.07;101053.38;4972510;28;20174;-73
2022/05/21 08:11:49;;;;;;;7.47;1.73;;;;;;;23.81;48.20;101055.50;4990280;28;20228;-76
2022/05/21 08:14:15;;;;;;;3.03;1.23;;;;;;;23.81;49.15;101055.50;4991455;28;20170;-75
2022/05/21 08:16:41;;;;;;;3.53;1.13;;;;;;;23.82;49.27;101060.03;4978589;28;20435;-74
2022/05/21 08:19:06;;;;;;;5.63;1.30;;;;;;;23.82;49.21;101051.38;4994640;28;20551;-74
2022/05/21 08:21:31;;;;;;;5.13;1.37;;;;;;;23.84;49.43;101050.97;4993526;28;20681;-76
2022/05/21 08:26:56;;;;;;;3.90;1.10;;;;;;;23.85;49.70;101044.81;4991671;28;20550;-76
2022/05/21 08:29:29;;;;;;;4.47;1.20;;;;;;;23.85;49.24;101036.16;4976727;28;20432;-76
2022/05/21 08:31:55;;;;;;;5.63;1.30;;;;;;;23.87;49.51;101045.22;4963072;28;21186;-74
2022/05/21 08:34:21;;;;;;;4.97;1.50;;;;;;;23.86;49.29;101043.59;4971500;28;20521;-76
2022/05/21 08:36:47;;;;;;;4.20;1.40;;;;;;;23.85;49.15;101035.31;4967998;28;20432;-74
2022/05/21 08:39:13;;;;;;;3.40;1.30;;;;;;;23.89;49.34;101034.16;4974164;28;20436;-74
2022/05/21 08:41:47;;;;;;;4.17;1.30;;;;;;;23.90;49.48;101041.59;4990557;28;20197;-73
2022/05/21 08:44:35;;;;;;;3.23;1.47;;;;;;;23.92;49.24;101030.47;4990405;28;20409;-74
2022/05/21 08:47:29;;;;;;;3.53;0.93;;;;;;;23.92;49.21;101038.28;4978312;28;20990;-73
2022/05/21 08:50:13;;;;;;;7.47;1.40;;;;;;;23.90;49.40;101038.72;4990391;28;20461;-75
2022/05/21 08:52:54;;;;;;;3.40;1.10;;;;;;;23.93;49.62;101028.44;4974000;28;20803;-74
2022/05/21 08:55:21;;;;;;;22.20;2.00;;;;;;;23.97;49.70;101027.22;4990418;28;20428;-75
2022/05/21 08:57:48;;;;;;;9.07;1.50;;;;;;;24.07;50.18;101029.34;4973685;28;20421;-77
2022/05/21 09:00:25;;;;;;;5.80;1.40;;;;;;;24.15;51.19;101025.31;4988068;28;20871;-73
2022/05/21 09:02:50;;;;;;;10.33;1.40;;;;;;;24.03;49.36;101022.72;4974962;28;20436;-76
2022/05/21 09:05:17;;;;;;;6.63;1.37;;;;;;;24.01;50.11;101019.41;4973727;28;20898;-75
2022/05/21 09:07:50;;;;;;;6.03;1.63;;;;;;;24.01;50.10;101013.66;4989349;28;20312;-75
2022/05/21 09:10:38;;;;;;;2.67;1.23;;;;;;;23.96;49.80;101007.41;4974399;28;20429;-74
2022/05/21 09:13:25;;;;;;;4.20;1.80;;;;;;;23.94;48.53;101012.78;4974900;28;20488;-72
2022/05/21 09:18:34;;;;;;;3.67;1.10;;;;;;;23.90;48.56;101009.88;4974915;28;20471;-73
2022/05/21 09:21:15;;;;;;;4.90;1.40;;;;;;;23.86;47.04;100996.59;4973241;28;20476;-73
2022/05/21 09:23:55;;;;;;;3.60;1.37;;;;;;;23.85;47.83;101007.31;4974812;28;20212;-73
2022/05/21 09:26:29;;;;;;;5.30;1.33;;;;;;;23.79;47.25;101006.00;4974020;28;20417;-74
2022/05/21 09:29:18;;;;;;;4.00;1.37;;;;;;;23.72;47.60;100997.31;4973280;28;20720;-74
2022/05/21 09:31:43;;;;;;;3.33;1.20;;;;;;;23.76;47.49;100997.34;4989609;28;20491;-75
2022/05/21 09:34:22;;;;;;;3.90;1.53;;;;;;;23.73;46.71;100981.66;4974290;28;20433;-73
2022/05/21 09:36:48;;;;;;;4.40;1.67;;;;;;;23.68;47.43;100982.03;4976450;28;20162;-73
2022/05/21 09:39:30;;;;;;;3.60;1.10;;;;;;;23.78;47.68;100981.28;4974566;28;20464;-75
2022/05/21 09:45:25;;;;;;;4.57;1.60;;;;;;;23.89;47.86;100973.56;4979492;28;20427;-77
2022/05/21 09:48:16;;;;;;;3.40;1.30;;;;;;;23.92;47.26;100978.56;4976035;28;20413;-74
2022/05/21 09:50:50;;;;;;;4.53;1.60;;;;;;;23.94;47.40;100976.09;4974360;28;20428;-76
2022/05/21 09:53:25;;;;;;;3.97;1.33;;;;;;;23.93;47.37;100980.19;4973361;28;20441;-76
2022/05/21 09:56:08;;;;;;;5.50;1.50;;;;;;;23.91;48.17;100979.78;4988896;28;20511;-74
2022/05/21 09:58:39;;;;;;;3.03;1.10;;;;;;;23.92;47.98;100974.81;4957928;28;20413;-77
2022/05/21 10:01:05;;;;;;;3.30;1.47;;;;;;;23.91;47.80;100979.78;4957408;28;20440;-76
2022/05/21 10:03:47;;;;;;;4.73;1.30;;;;;;;23.97;47.73;100966.63;4973233;28;20875;-76
2022/05/21 10:06:28;;;;;;;3.57;1.43;;;;;;;23.99;48.21;100961.28;4956307;28;20468;-75
2022/05/21 10:11:46;;;;;;;3.80;1.23;;;;;;;24.01;48.38;100967.50;4990655;28;20490;-76
2022/05/21 10:14:22;;;;;;;3.90;1.20;;;;;;;24.00;47.77;100962.97;4989360;28;20649;-76
2022/05/21 10:16:58;;;;;;;3.90;0.97;;;;;;;24.03;47.86;100959.25;4973700;28;20432;-76
2022/05/21 10:19:26;;;;;;;5.13;1.60;;;;;;;24.04;47.94;100948.56;4983923;28;20465;-76
2022/05/21 10:21:52;;;;;;;4.00;1.40;;;;;;;24.07;48.24;100948.56;4973764;28;20950;-76
2022/05/21 10:24:23;;;;;;;3.33;1.00;;;;;;;24.08;48.31;100958.88;4990567;28;20468;-75
2022/05/21 10:26:55;;;;;;;4.57;0.97;;;;;;;24.08;48.17;100958.88;4974418;28;20201;-76
2022/05/21 10:30:06;;;;;;;4.10;1.30;;;;;;;24.07;48.42;100954.34;4990681;28;20433;-76
2022/05/21 10:32:53;;;;;;;6.70;2.07;;;;;;;23.95;46.84;100954.69;4972239;28;20971;-75
2022/05/21 10:35:27;;;;;;;4.43;1.60;;;;;;;23.85;45.61;100946.75;4983447;28;20904;-76
2022/05/21 10:38:12;;;;;;;2.77;1.00;;;;;;;23.83;47.03;100937.66;4989778;28;20427;-75
2022/05/21 10:40:58;;;;;;;2.73;1.10;;;;;;;23.80;45.71;100947.13;4988358;28;21021;-75
2022/05/21 10:43:31;;;;;;;4.90;1.17;;;;;;;23.78;45.39;100943.81;4968984;28;20402;-76
2022/05/21 10:46:22;;;;;;;3.60;1.03;;;;;;;23.77;46.00;100933.50;4969496;28;20987;-74
2022/05/21 10:49:25;;;;;;;3.90;1.30;;;;;;;23.73;45.15;100937.59;4954732;28;20433;-77
2022/05/21 10:52:15;;;;;;;3.43;1.00;;;;;;;23.71;44.54;100937.16;4987709;28;20412;-76
2022/05/21 10:54:52;;;;;;;3.80;1.40;;;;;;;23.69;44.81;100928.91;4985410;28;20442;-75
2022/05/21 10:57:24;;;;;;;6.03;1.10;;;;;;;23.74;44.66;100927.72;4969806;28;20462;-75
2022/05/21 11:00:01;;;;;;;6.30;1.67;;;;;;;23.73;44.56;100924.00;4982038;28;20467;-75
2022/05/21 11:02:47;;;;;;;3.63;1.30;;;;;;;23.69;44.18;100934.66;4953164;28;20445;-75
2022/05/21 11:05:25;;;;;;;6.90;1.40;;;;;;;23.68;44.38;100935.91;4994121;28;20513;-75
2022/05/21 11:07:59;;;;;;;5.13;1.67;;;;;;;23.71;44.02;100938.00;4992048;28;20771;-75
2022/05/21 11:10:35;;;;;;;4.77;1.37;;;;;;;23.68;44.22;100933.03;4984506;28;20420;-76
2022/05/21 11:13:17;;;;;;;3.90;1.07;;;;;;;23.72;44.05;100921.50;4971759;28;21008;-76
2022/05/21 11:15:54;;;;;;;4.40;1.20;;;;;;;23.73;43.69;100926.88;4971777;28;20466;-74
2022/05/21 11:18:42;;;;;;;3.83;1.30;;;;;;;23.81;43.82;100922.00;4994105;28;20988;-74
2022/05/21 11:21:17;;;;;;;3.63;0.93;;;;;;;23.72;43.65;100907.94;4991004;28;20420;-77
2022/05/21 11:23:43;;;;;;;2.70;1.10;;;;;;;23.74;44.08;100916.19;4975674;28;20821;-75
2022/05/21 11:26:30;;;;;;;4.93;1.13;;;;;;;23.76;44.42;100913.72;5008864;28;20431;-75
2022/05/21 11:29:12;;;;;;;2.33;1.10;;;;;;;23.78;44.43;100917.03;4976015;28;20179;-78
2022/05/21 11:37:22;;;;;;;4.37;1.37;;;;;;;23.80;47.34;100912.53;4973646;28;20480;-76
2022/05/21 11:39:52;;;;;;;4.33;1.10;;;;;;;23.83;45.09;100911.69;4968532;28;20447;-78
2022/05/21 11:42:22;;;;;;;5.10;1.20;;;;;;;23.83;45.68;100914.59;4974023;28;20526;-77
2022/05/21 11:45:01;;;;;;;8.40;1.30;;;;;;;23.84;45.61;100921.19;4991438;28;20466;-77
2022/05/21 11:47:27;;;;;;;3.20;0.90;;;;;;;23.87;46.03;100911.72;4992151;28;20773;-75
2022/05/21 11:49:55;;;;;;;6.00;1.53;;;;;;;23.90;45.74;100922.50;4989688;28;20498;-76
2022/05/21 11:52:27;;;;;;;2.90;1.20;;;;;;;23.90;45.86;100920.44;5008046;28;20679;-77
2022/05/21 11:54:58;;;;;;;5.43;1.50;;;;;;;23.89;45.94;100910.13;5008480;28;20435;-75
2022/05/21 11:57:32;;;;;;;7.50;1.63;;;;;;;23.89;45.96;100913.00;5008817;28;20431;-75
2022/05/21 11:59:58;;;;;;;7.47;2.20;;;;;;;23.91;45.54;100913.44;4973549;28;20439;-76
2022/05/21 12:02:28;;;;;;;3.77;1.70;;;;;;;23.91;45.58;100899.03;4974328;28;20450;-75
2022/05/21 12:04:57;;;;;;;4.70;1.47;;;;;;;23.92;45.67;100903.56;4971205;28;20217;-75
2022/05/21 12:07:42;;;;;;;2.97;1.40;;;;;;;23.91;45.81;100896.13;4987334;28;20433;-75
2022/05/21 12:10:24;;;;;;;3.77;1.00;;;;;;;23.92;45.64;100894.91;4988296;28;20494;-76